createdAt,value
2017-10-17T00:00:29.233Z,22.77
2017-10-17T00:02:56.803Z,23.30
2017-10-17T00:05:25.179Z,21.67
2017-10-17T00:07:53.511Z,19.00
2017-10-17T00:10:21.453Z,21.97
2017-10-17T00:12:49.055Z,23.00
2017-10-17T00:15:16.915Z,20.40
2017-10-17T00:17:44.478Z,21.57
2017-10-17T00:20:12.058Z,21.77
2017-10-17T00:22:39.645Z,23.73
2017-10-17T00:25:09.963Z,23.73
2017-10-17T00:27:38.320Z,22.40
2017-10-17T00:30:05.942Z,21.47
2017-10-17T00:32:36.742Z,22.90
2017-10-17T00:35:13.236Z,21.50
2017-10-17T00:37:41.075Z,23.00
2017-10-17T00:40:08.653Z,23.10
2017-10-17T00:42:36.244Z,21.57
2017-10-17T00:45:03.819Z,22.87
2017-10-17T00:47:31.380Z,21.23
2017-10-17T00:49:59.329Z,21.30
2017-10-17T00:52:26.890Z,22.23
2017-10-17T00:54:54.478Z,21.67
2017-10-17T00:57:22.886Z,21.73
2017-10-17T00:59:50.459Z,18.90
2017-10-17T01:02:18.045Z,19.90
2017-10-17T01:04:45.608Z,18.73
2017-10-17T01:07:13.582Z,21.80
2017-10-17T01:09:41.259Z,20.13
2017-10-17T01:12:08.824Z,19.10
2017-10-17T01:14:37.193Z,19.03
2017-10-17T01:17:04.766Z,18.13
2017-10-17T01:19:33.392Z,21.83
2017-10-17T01:22:00.966Z,19.63
2017-10-17T01:24:28.518Z,22.13
2017-10-17T01:26:56.097Z,21.87
2017-10-17T01:29:27.285Z,23.03
2017-10-17T01:31:55.188Z,20.77
2017-10-17T01:34:39.558Z,20.07
2017-10-17T01:37:07.521Z,18.00
2017-10-17T01:39:35.985Z,19.93
2017-10-17T01:42:03.587Z,16.23
2017-10-17T01:44:32.017Z,17.60
2017-10-17T01:46:59.577Z,17.97
2017-10-17T01:49:30.708Z,18.20
2017-10-17T01:55:06.097Z,20.03
2017-10-17T01:57:35.422Z,17.17
2017-10-17T02:00:03.911Z,17.63
2017-10-17T02:02:31.481Z,19.00
2017-10-17T02:05:01.282Z,19.30
2017-10-17T02:07:28.885Z,19.63
2017-10-17T02:09:59.193Z,19.80
2017-10-17T02:12:27.122Z,19.60
2017-10-17T02:14:54.697Z,19.20
2017-10-17T02:17:23.127Z,19.80
2017-10-17T02:19:51.484Z,20.30
2017-10-17T02:22:28.842Z,20.60
2017-10-17T02:24:57.282Z,20.30
2017-10-17T02:27:24.870Z,21.77
2017-10-17T02:29:57.199Z,21.77
2017-10-17T02:32:24.778Z,21.73
2017-10-17T02:34:53.254Z,22.07
2017-10-17T02:37:20.885Z,21.13
2017-10-17T02:39:48.444Z,23.10
2017-10-17T02:42:16.279Z,21.23
2017-10-17T02:44:43.844Z,22.00
2017-10-17T02:47:12.240Z,24.10
2017-10-17T02:49:42.499Z,23.37
2017-10-17T02:52:32.697Z,23.57
2017-10-17T02:55:00.295Z,21.20
2017-10-17T02:57:28.701Z,20.67
2017-10-17T02:59:57.364Z,22.20
2017-10-17T03:02:31.195Z,25.13
2017-10-17T03:04:59.813Z,24.50
2017-10-17T03:07:27.369Z,26.00
2017-10-17T03:09:55.093Z,22.30
2017-10-17T03:12:22.669Z,22.50
2017-10-17T03:14:51.030Z,22.97
2017-10-17T03:17:18.626Z,23.17
2017-10-17T03:19:46.204Z,22.10
2017-10-17T03:22:15.712Z,22.77
2017-10-17T03:24:48.057Z,20.87
2017-10-17T03:27:15.637Z,20.30
2017-10-17T03:29:43.196Z,20.90
2017-10-17T03:32:11.115Z,22.50
2017-10-17T03:34:42.464Z,20.13
2017-10-17T03:37:27.610Z,20.53
2017-10-17T03:40:12.806Z,21.37
2017-10-17T03:42:40.385Z,21.10
2017-10-17T03:45:08.777Z,20.13
2017-10-17T03:47:43.847Z,21.30
2017-10-17T03:50:24.154Z,20.13
2017-10-17T03:52:51.750Z,19.93
2017-10-17T03:55:19.415Z,20.87
2017-10-17T03:57:48.781Z,19.90
2017-10-17T04:00:17.264Z,20.57
2017-10-17T04:02:49.543Z,20.10
2017-10-17T04:05:19.959Z,21.90
2017-10-17T04:07:50.383Z,19.50
2017-10-17T04:10:18.225Z,18.30
2017-10-17T04:13:14.395Z,18.20
2017-10-17T04:15:42.340Z,17.57
2017-10-17T04:18:23.775Z,17.47
2017-10-17T04:20:53.025Z,17.20
2017-10-17T04:23:25.042Z,17.50
2017-10-17T04:26:07.326Z,18.30
2017-10-17T04:28:37.642Z,19.47
2017-10-17T04:34:24.843Z,22.73
2017-10-17T04:37:13.982Z,21.93
2017-10-17T04:39:41.566Z,21.20
2017-10-17T04:42:21.855Z,21.43
2017-10-17T04:45:01.092Z,21.10
2017-10-17T04:47:36.082Z,21.60
2017-10-17T04:53:14.887Z,20.63
2017-10-17T04:58:49.046Z,20.83
2017-10-17T05:01:17.373Z,21.53
2017-10-17T05:03:46.462Z,22.93
2017-10-17T05:06:14.034Z,20.40
2017-10-17T05:11:37.568Z,19.17
2017-10-17T05:14:22.811Z,19.77
2017-10-17T05:16:57.271Z,18.37
2017-10-17T05:19:28.328Z,19.70
2017-10-17T05:22:01.868Z,18.27
2017-10-17T05:24:50.904Z,18.13
2017-10-17T05:27:30.300Z,19.43
2017-10-17T05:30:16.341Z,18.70
2017-10-17T05:32:43.937Z,18.27
2017-10-17T05:35:16.795Z,17.00
2017-10-17T05:37:44.638Z,19.03
2017-10-17T05:40:12.992Z,18.03
2017-10-17T05:42:40.550Z,18.13
2017-10-17T05:45:09.040Z,20.67
2017-10-17T05:47:48.794Z,19.70
2017-10-17T05:50:25.272Z,18.30
2017-10-17T05:52:52.845Z,19.47
2017-10-17T05:55:20.694Z,17.60
2017-10-17T05:57:48.269Z,19.67
2017-10-17T06:00:15.936Z,19.33
2017-10-17T06:02:43.561Z,17.63
2017-10-17T06:05:11.163Z,18.17
2017-10-17T06:07:38.774Z,16.77
2017-10-17T06:10:06.438Z,17.47
2017-10-17T06:12:34.345Z,15.53
2017-10-17T06:15:01.914Z,16.60
2017-10-17T06:17:29.505Z,17.10
2017-10-17T06:19:57.114Z,17.07
2017-10-17T06:22:24.664Z,15.33
2017-10-17T06:24:52.549Z,17.50
2017-10-17T06:27:20.221Z,15.50
2017-10-17T06:29:47.790Z,16.00
2017-10-17T06:32:15.373Z,16.80
2017-10-17T06:34:42.974Z,15.30
2017-10-17T06:37:10.587Z,15.40
2017-10-17T06:39:38.922Z,15.27
2017-10-17T06:42:06.866Z,15.13
2017-10-17T06:44:34.549Z,16.53
2017-10-17T06:47:02.119Z,17.20
2017-10-17T06:49:29.710Z,14.70
2017-10-17T06:51:58.630Z,14.70
2017-10-17T06:54:26.569Z,14.57
2017-10-17T06:56:54.928Z,14.10
2017-10-17T06:59:22.509Z,14.33
2017-10-17T07:01:50.875Z,14.00
2017-10-17T07:04:19.221Z,13.13
2017-10-17T07:06:46.847Z,13.33
2017-10-17T07:09:14.412Z,12.43
2017-10-17T07:11:42.262Z,14.17
2017-10-17T07:14:09.874Z,12.83
2017-10-17T07:16:37.673Z,12.00
2017-10-17T07:19:06.040Z,14.13
2017-10-17T07:21:34.426Z,12.30
2017-10-17T07:24:02.801Z,13.53
2017-10-17T07:26:31.188Z,12.90
2017-10-17T07:28:59.819Z,13.57
2017-10-17T07:31:28.279Z,12.47
2017-10-17T07:33:55.860Z,12.83
2017-10-17T07:36:23.460Z,13.03
2017-10-17T07:38:51.817Z,11.97
2017-10-17T07:41:19.698Z,12.93
2017-10-17T07:43:47.302Z,12.53
2017-10-17T07:46:14.967Z,11.90
2017-10-17T07:48:42.579Z,12.77
2017-10-17T07:51:10.218Z,11.87
2017-10-17T07:53:38.068Z,11.43
2017-10-17T07:56:05.653Z,11.30
2017-10-17T07:58:33.251Z,12.87
2017-10-17T08:01:01.074Z,12.47
2017-10-17T08:03:28.659Z,12.20
2017-10-17T08:05:57.019Z,10.93
2017-10-17T08:08:24.620Z,13.90
2017-10-17T08:10:52.555Z,13.23
2017-10-17T08:13:20.138Z,14.50
2017-10-17T08:15:48.478Z,13.40
2017-10-17T08:18:16.125Z,11.27
2017-10-17T08:20:43.747Z,11.03
2017-10-17T08:23:11.342Z,11.30
2017-10-17T08:25:38.934Z,9.90
2017-10-17T08:28:06.894Z,10.17
2017-10-17T08:30:34.453Z,10.53
2017-10-17T08:33:02.025Z,11.27
2017-10-17T08:35:30.383Z,9.37
2017-10-17T08:37:58.003Z,10.13
2017-10-17T08:40:26.009Z,9.20
2017-10-17T08:42:53.602Z,8.67
2017-10-17T08:45:22.058Z,8.30
2017-10-17T08:47:49.674Z,8.23
2017-10-17T08:50:17.247Z,8.37
2017-10-17T08:52:44.857Z,7.47
2017-10-17T08:55:13.217Z,8.80
2017-10-17T08:57:41.096Z,8.70
2017-10-17T09:00:08.670Z,8.87
2017-10-17T09:02:37.013Z,8.37
2017-10-17T09:05:04.614Z,7.30
2017-10-17T09:07:32.238Z,8.00
2017-10-17T09:10:00.290Z,8.80
2017-10-17T09:12:27.877Z,7.50
2017-10-17T09:14:55.462Z,8.03
2017-10-17T09:17:23.951Z,8.60
2017-10-17T09:19:51.534Z,7.97
2017-10-17T09:22:19.129Z,9.23
2017-10-17T09:24:46.729Z,8.10
2017-10-17T09:27:14.665Z,8.70
2017-10-17T09:29:42.242Z,8.10
2017-10-17T09:32:10.575Z,7.63
2017-10-17T09:34:38.546Z,7.80
2017-10-17T09:37:06.202Z,8.40
2017-10-17T09:39:33.770Z,9.10
2017-10-17T09:42:01.378Z,8.20
2017-10-17T09:44:29.758Z,7.87
2017-10-17T09:46:57.737Z,8.27
2017-10-17T09:49:25.314Z,8.23
2017-10-17T09:51:52.903Z,7.67
2017-10-17T09:54:20.494Z,7.40
2017-10-17T09:56:48.968Z,7.47
2017-10-17T09:59:16.902Z,8.07
2017-10-17T10:01:44.507Z,8.00
2017-10-17T10:04:12.854Z,6.57
2017-10-17T10:06:40.520Z,7.60
2017-10-17T10:09:08.077Z,7.30
2017-10-17T10:11:36.035Z,7.70
2017-10-17T10:14:03.619Z,6.43
2017-10-17T10:16:31.206Z,6.33
2017-10-17T10:18:58.900Z,7.13
2017-10-17T10:21:26.473Z,6.90
2017-10-17T10:23:54.118Z,7.00
2017-10-17T10:26:22.482Z,6.67
2017-10-17T10:28:50.373Z,7.03
2017-10-17T10:31:17.958Z,6.77
2017-10-17T10:33:45.534Z,7.03
2017-10-17T10:36:13.947Z,6.43
2017-10-17T10:38:41.530Z,6.73
2017-10-17T10:41:09.502Z,7.17
2017-10-17T10:43:37.083Z,6.97
2017-10-17T10:46:04.690Z,6.73
2017-10-17T10:48:32.298Z,7.00
2017-10-17T10:50:59.897Z,7.77
2017-10-17T10:53:27.505Z,6.73
2017-10-17T10:55:55.091Z,6.37
2017-10-17T10:58:22.932Z,6.90
2017-10-17T11:00:50.556Z,6.63
2017-10-17T11:03:18.145Z,6.53
2017-10-17T11:05:45.738Z,6.97
2017-10-17T11:08:14.618Z,6.50
2017-10-17T11:10:42.553Z,6.67
2017-10-17T11:13:10.164Z,6.90
2017-10-17T11:15:38.568Z,6.60
2017-10-17T11:18:06.256Z,6.57
2017-10-17T11:20:34.675Z,6.57
2017-10-17T11:23:03.066Z,6.50
2017-10-17T11:25:31.454Z,6.20
2017-10-17T11:27:59.309Z,7.27
2017-10-17T11:30:27.662Z,6.80
2017-10-17T11:32:55.249Z,6.97
2017-10-17T11:35:22.918Z,6.73
2017-10-17T11:37:50.492Z,6.73
2017-10-17T11:40:40.818Z,6.93
2017-10-17T11:43:20.157Z,6.20
2017-10-17T11:45:48.009Z,5.67
2017-10-17T11:48:15.625Z,5.90
2017-10-17T11:50:44.203Z,6.87
2017-10-17T11:53:12.611Z,6.83
2017-10-17T11:55:40.208Z,6.43
2017-10-17T11:58:08.057Z,7.13
2017-10-17T12:00:35.690Z,6.40
2017-10-17T12:03:03.270Z,6.70
2017-10-17T12:05:30.885Z,7.03
2017-10-17T12:07:59.232Z,6.23
2017-10-17T12:10:26.858Z,6.30
2017-10-17T12:12:54.415Z,6.63
2017-10-17T12:15:22.263Z,6.07
2017-10-17T12:17:49.850Z,6.17
2017-10-17T12:20:18.303Z,7.10
2017-10-17T12:22:46.046Z,6.50
2017-10-17T12:25:14.365Z,5.77
2017-10-17T12:27:41.974Z,6.80
2017-10-17T12:30:09.575Z,6.47
2017-10-17T12:32:37.425Z,5.77
2017-10-17T12:35:04.994Z,6.00
2017-10-17T12:37:32.582Z,5.90
2017-10-17T12:40:00.183Z,5.37
2017-10-17T12:42:28.553Z,6.10
2017-10-17T12:44:56.403Z,5.67
2017-10-17T12:47:24.009Z,5.67
2017-10-17T12:49:51.773Z,5.50
2017-10-17T12:52:19.366Z,6.30
2017-10-17T12:54:46.955Z,6.00
2017-10-17T12:57:14.605Z,6.13
2017-10-17T12:59:42.173Z,6.30
2017-10-17T13:02:10.022Z,6.03
2017-10-17T13:04:37.615Z,5.53
2017-10-17T13:07:05.240Z,5.83
2017-10-17T13:09:32.858Z,5.80
2017-10-17T13:12:00.438Z,6.40
2017-10-17T13:14:28.286Z,6.10
2017-10-17T13:16:55.842Z,6.50
2017-10-17T13:19:24.169Z,6.23
2017-10-17T13:21:51.776Z,6.50
2017-10-17T13:24:20.127Z,5.83
2017-10-17T13:26:47.870Z,4.93
2017-10-17T13:29:15.448Z,5.97
2017-10-17T13:31:43.400Z,6.03
2017-10-17T13:34:10.986Z,5.60
2017-10-17T13:36:39.374Z,6.30
2017-10-17T13:39:07.754Z,6.87
2017-10-17T13:41:36.104Z,7.10
2017-10-17T13:44:03.943Z,7.80
2017-10-17T13:46:31.526Z,6.27
2017-10-17T13:48:59.098Z,6.00
2017-10-17T13:51:26.686Z,6.40
2017-10-17T13:53:54.246Z,5.80
2017-10-17T13:56:21.940Z,5.90
2017-10-17T13:58:49.509Z,6.27
2017-10-17T14:01:17.375Z,6.60
2017-10-17T14:03:45.054Z,6.20
2017-10-17T14:06:12.775Z,6.10
2017-10-17T14:08:40.364Z,5.97
2017-10-17T14:11:07.946Z,6.30
2017-10-17T14:13:35.883Z,5.60
2017-10-17T14:16:03.454Z,6.20
2017-10-17T14:18:31.034Z,5.90
2017-10-17T14:20:58.645Z,6.50
2017-10-17T14:23:27.031Z,6.43
2017-10-17T14:25:54.694Z,7.20
2017-10-17T14:28:22.274Z,6.20
2017-10-17T14:30:50.241Z,7.07
2017-10-17T14:33:17.859Z,6.40
2017-10-17T14:35:45.434Z,7.13
2017-10-17T14:38:13.315Z,6.40
2017-10-17T14:40:40.969Z,8.00
2017-10-17T14:43:08.581Z,7.17
2017-10-17T14:45:36.965Z,7.37
2017-10-17T14:48:05.306Z,8.10
2017-10-17T14:50:33.518Z,7.90
2017-10-17T14:53:01.866Z,7.10
2017-10-17T14:55:29.479Z,7.90
2017-10-17T14:57:57.106Z,6.47
2017-10-17T15:00:25.755Z,6.97
2017-10-17T15:02:53.370Z,7.10
2017-10-17T15:05:21.869Z,6.57
2017-10-17T15:07:49.492Z,7.67
2017-10-17T15:10:17.144Z,7.07
2017-10-17T15:12:44.778Z,7.63
2017-10-17T15:15:12.420Z,6.90
2017-10-17T15:17:40.294Z,7.00
2017-10-17T15:20:07.872Z,6.80
2017-10-17T15:22:35.442Z,7.20
2017-10-17T15:25:03.297Z,6.30
2017-10-17T15:27:30.883Z,6.73
2017-10-17T15:29:58.831Z,7.17
2017-10-17T15:32:26.404Z,6.93
2017-10-17T15:34:53.972Z,7.27
2017-10-17T15:37:22.335Z,7.00
2017-10-17T15:39:49.924Z,7.80
2017-10-17T15:42:18.325Z,6.73
2017-10-17T15:44:45.884Z,7.10
2017-10-17T15:47:13.741Z,7.30
2017-10-17T15:49:41.337Z,7.10
2017-10-17T15:52:08.960Z,7.03
2017-10-17T15:54:36.605Z,7.57
2017-10-17T15:57:04.970Z,6.83
2017-10-17T15:59:33.615Z,7.73
2017-10-17T16:02:01.239Z,7.27
2017-10-17T16:04:28.882Z,8.10
2017-10-17T16:06:57.269Z,7.60
2017-10-17T16:09:25.601Z,8.83
2017-10-17T16:11:53.213Z,8.57
2017-10-17T16:14:21.850Z,9.43
2017-10-17T16:16:49.721Z,8.60
2017-10-17T16:19:17.311Z,9.10
2017-10-17T16:21:45.711Z,11.27
2017-10-17T16:24:13.350Z,10.53
2017-10-17T16:26:40.975Z,10.00
2017-10-17T16:29:08.846Z,9.53
2017-10-17T16:31:36.463Z,9.87
2017-10-17T16:34:04.086Z,9.10
2017-10-17T16:36:31.733Z,10.70
2017-10-17T16:38:59.457Z,11.97
2017-10-17T16:41:27.070Z,10.73
2017-10-17T16:43:54.755Z,11.40
2017-10-17T16:46:23.415Z,10.93
2017-10-17T16:48:51.015Z,11.13
2017-10-17T16:51:18.676Z,12.60
2017-10-17T16:53:46.304Z,11.93
2017-10-17T16:56:14.725Z,12.60
2017-10-17T16:58:42.649Z,12.60
2017-10-17T17:01:11.019Z,13.90
2017-10-17T17:03:39.429Z,12.73
2017-10-17T17:06:07.116Z,12.37
2017-10-17T17:08:34.776Z,12.97
2017-10-17T17:11:02.451Z,12.50
2017-10-17T17:13:30.101Z,13.27
2017-10-17T17:15:58.032Z,11.47
2017-10-17T17:18:25.628Z,12.30
2017-10-17T17:20:58.057Z,12.00
2017-10-17T17:23:25.750Z,13.53
2017-10-17T17:25:53.398Z,13.53
2017-10-17T17:28:21.256Z,13.10
2017-10-17T17:30:49.637Z,13.07
2017-10-17T17:33:18.072Z,14.50
2017-10-17T17:35:45.704Z,15.57
2017-10-17T17:38:13.306Z,17.13
2017-10-17T17:40:40.955Z,15.47
2017-10-17T17:43:08.612Z,15.13
2017-10-17T17:45:36.461Z,14.77
2017-10-17T17:48:04.131Z,16.10
2017-10-17T17:50:31.808Z,14.17
2017-10-17T17:52:59.483Z,14.60
2017-10-17T17:55:27.131Z,13.53
2017-10-17T17:57:54.846Z,13.80
2017-10-17T18:00:22.504Z,16.73
2017-10-17T18:02:50.437Z,16.33
2017-10-17T18:05:18.046Z,16.30
2017-10-17T18:07:45.671Z,19.03
2017-10-17T18:10:13.504Z,19.63
2017-10-17T18:12:41.188Z,16.57
2017-10-17T18:15:11.162Z,16.97
2017-10-17T18:17:39.519Z,18.70
2017-10-17T18:20:08.282Z,20.70
2017-10-17T18:22:36.308Z,18.87
2017-10-17T18:25:04.702Z,19.80
2017-10-17T18:27:32.498Z,18.73
2017-10-17T18:30:00.176Z,20.83
2017-10-17T18:32:28.155Z,20.73
2017-10-17T18:34:55.900Z,20.00
2017-10-17T18:37:24.285Z,20.37
2017-10-17T18:39:52.083Z,19.97
2017-10-17T18:42:19.790Z,18.87
2017-10-17T18:44:48.195Z,21.60
2017-10-17T18:47:19.710Z,20.67
2017-10-17T18:49:47.422Z,21.50
2017-10-17T18:52:15.346Z,21.13
2017-10-17T18:54:43.065Z,20.47
2017-10-17T18:57:10.832Z,20.27
2017-10-17T18:59:38.897Z,21.70
2017-10-17T19:02:06.821Z,21.90
2017-10-17T19:04:35.455Z,20.47
2017-10-17T19:07:03.199Z,19.93
2017-10-17T19:09:31.315Z,21.43
2017-10-17T19:11:58.975Z,20.77
2017-10-17T19:14:27.116Z,21.97
2017-10-17T19:16:57.344Z,22.33
2017-10-17T19:19:27.270Z,23.03
2017-10-17T19:21:57.986Z,21.20
2017-10-17T19:24:25.608Z,22.10
2017-10-17T19:26:53.267Z,21.00
2017-10-17T19:29:21.130Z,21.00
2017-10-17T19:31:49.132Z,22.37
2017-10-17T19:34:16.836Z,28.27
2017-10-17T19:36:46.408Z,54.30
2017-10-17T19:39:14.116Z,40.97
2017-10-17T19:41:41.863Z,43.97
2017-10-17T19:44:10.258Z,26.30
2017-10-17T19:46:45.143Z,31.53
2017-10-17T19:49:13.062Z,25.47
2017-10-17T19:51:40.618Z,24.67
2017-10-17T19:54:08.310Z,23.60
2017-10-17T19:56:36.005Z,21.77
2017-10-17T19:59:03.741Z,20.70
2017-10-17T20:01:31.468Z,21.50
2017-10-17T20:03:59.303Z,21.93
2017-10-17T20:06:27.582Z,20.77
2017-10-17T20:08:55.231Z,20.20
2017-10-17T20:11:22.909Z,21.30
2017-10-17T20:13:52.111Z,21.73
2017-10-17T20:16:20.267Z,19.40
2017-10-17T20:18:48.185Z,20.67
2017-10-17T20:21:16.559Z,21.77
2017-10-17T20:23:44.358Z,20.60
2017-10-17T20:26:14.534Z,20.80
2017-10-17T20:28:42.486Z,20.90
2017-10-17T20:31:17.470Z,21.57
2017-10-17T20:33:45.917Z,22.10
2017-10-17T20:36:13.774Z,21.37
2017-10-17T20:38:42.300Z,20.93
2017-10-17T20:43:55.893Z,20.80
2017-10-17T20:46:24.052Z,23.43
2017-10-17T20:48:51.727Z,31.17
2017-10-17T20:51:19.318Z,33.80
2017-10-17T20:53:47.803Z,32.23
2017-10-17T20:56:15.434Z,32.53
2017-10-17T20:58:43.062Z,31.27
2017-10-17T21:01:10.653Z,30.20
2017-10-17T21:03:38.674Z,29.57
2017-10-17T21:06:06.263Z,25.17
2017-10-17T21:08:33.890Z,22.10
2017-10-17T21:11:01.522Z,21.20
2017-10-17T21:13:29.484Z,23.67
2017-10-17T21:15:57.136Z,23.37
2017-10-17T21:18:24.768Z,22.83
2017-10-17T21:20:52.446Z,23.13
2017-10-17T21:23:20.073Z,24.13
2017-10-17T21:25:47.979Z,23.93
2017-10-17T21:28:15.646Z,21.60
2017-10-17T21:30:43.274Z,25.07
2017-10-17T21:33:10.960Z,24.17
2017-10-17T21:35:38.587Z,24.87
2017-10-17T21:38:06.250Z,25.77
2017-10-17T21:40:33.898Z,23.20
2017-10-17T21:43:01.852Z,23.03
2017-10-17T21:45:29.541Z,22.23
2017-10-17T21:47:57.179Z,24.27
2017-10-17T21:50:25.593Z,22.00
2017-10-17T21:52:53.214Z,22.27
2017-10-17T21:55:21.856Z,23.97
2017-10-17T21:57:49.472Z,24.63
2017-10-17T22:00:17.164Z,24.80
2017-10-17T22:02:44.772Z,22.93
2017-10-17T22:05:13.136Z,23.40
2017-10-17T22:07:40.933Z,20.57
2017-10-17T22:10:08.514Z,22.90
2017-10-17T22:12:39.091Z,22.77
2017-10-17T22:15:06.687Z,21.63
2017-10-17T22:17:35.147Z,23.93
2017-10-17T22:20:03.698Z,21.50
2017-10-17T22:22:31.289Z,22.53
2017-10-17T22:24:59.907Z,23.83
2017-10-17T22:27:27.506Z,24.97
2017-10-17T22:29:55.127Z,27.97
2017-10-17T22:32:22.746Z,29.17
2017-10-17T22:34:51.133Z,28.93
2017-10-17T22:37:19.506Z,28.13
2017-10-17T22:39:47.881Z,26.53
2017-10-17T22:42:16.634Z,25.90
2017-10-17T22:44:44.252Z,26.53
2017-10-17T22:47:11.836Z,27.40
2017-10-17T22:49:39.438Z,27.50
2017-10-17T22:52:07.035Z,27.60
2017-10-17T22:54:41.698Z,25.77
2017-10-17T22:57:09.291Z,26.97
2017-10-17T22:59:37.385Z,27.07
2017-10-17T23:02:05.027Z,29.03
2017-10-17T23:04:32.603Z,25.73
2017-10-17T23:07:00.962Z,26.33
2017-10-17T23:09:28.557Z,23.77
2017-10-17T23:11:56.522Z,26.90
2017-10-17T23:14:24.089Z,27.37
2017-10-17T23:17:03.863Z,24.63
2017-10-17T23:19:43.368Z,23.17
2017-10-17T23:22:11.369Z,22.53
2017-10-17T23:24:38.952Z,23.37
2017-10-17T23:27:06.554Z,23.07
2017-10-17T23:29:34.171Z,21.20
2017-10-17T23:32:01.768Z,21.30
2017-10-17T23:34:29.379Z,24.00
2017-10-17T23:36:57.003Z,20.63
2017-10-17T23:39:24.589Z,21.60
2017-10-17T23:41:52.174Z,20.67
2017-10-17T23:44:20.143Z,21.73
2017-10-17T23:46:47.729Z,21.90
2017-10-17T23:49:16.096Z,22.10
2017-10-17T23:51:44.463Z,21.10
2017-10-17T23:54:12.043Z,22.23
2017-10-17T23:56:40.434Z,21.40
2017-10-17T23:59:08.174Z,20.57
